createdAt,value
2023-01-30T00:02:45.442Z,13.70
2023-01-30T00:06:27.113Z,13.70
2023-01-30T00:10:09.122Z,13.70
2023-01-30T00:13:50.947Z,13.70
2023-01-30T00:17:32.589Z,13.70
2023-01-30T00:21:14.791Z,13.70
2023-01-30T00:24:56.593Z,13.70
2023-01-30T00:28:39.583Z,13.80
2023-01-30T00:32:21.231Z,13.70
2023-01-30T00:36:03.188Z,13.70
2023-01-30T00:39:44.818Z,13.70
2023-01-30T00:43:44.927Z,13.70
2023-01-30T00:47:26.529Z,13.70
2023-01-30T00:51:08.170Z,13.70
2023-01-30T00:54:51.437Z,13.70
2023-01-30T00:58:33.849Z,13.70
2023-01-30T01:02:15.549Z,13.70
2023-01-30T01:05:57.300Z,13.80
2023-01-30T01:09:39.006Z,13.80
2023-01-30T01:13:20.607Z,13.80
2023-01-30T01:17:02.230Z,13.70
2023-01-30T01:20:43.914Z,13.70
2023-01-30T01:24:25.639Z,13.70
2023-01-30T01:28:07.269Z,13.80
2023-01-30T01:31:48.918Z,13.80
2023-01-30T01:35:30.559Z,13.80
2023-01-30T01:39:12.193Z,13.80
2023-01-30T01:42:53.913Z,13.80
2023-01-30T01:46:42.348Z,13.80
2023-01-30T01:50:44.804Z,13.80
2023-01-30T01:54:29.958Z,13.80
2023-01-30T01:58:13.828Z,13.80
2023-01-30T02:02:00.078Z,13.80
2023-01-30T02:05:43.548Z,13.80
2023-01-30T02:09:25.355Z,13.80
2023-01-30T02:13:06.971Z,13.80
2023-01-30T02:16:48.722Z,13.80
2023-01-30T02:20:33.442Z,13.80
2023-01-30T02:24:33.738Z,13.80
2023-01-30T02:28:30.933Z,13.80
2023-01-30T02:32:24.386Z,13.80
2023-01-30T02:36:12.087Z,13.80
2023-01-30T02:40:05.913Z,13.80
2023-01-30T02:43:55.191Z,13.80
2023-01-30T02:47:36.781Z,13.80
2023-01-30T02:51:21.153Z,13.80
2023-01-30T02:55:07.146Z,13.80
2023-01-30T02:58:51.718Z,13.80
2023-01-30T03:02:42.207Z,13.80
2023-01-30T03:06:31.511Z,13.80
2023-01-30T03:10:13.096Z,13.80
2023-01-30T03:14:13.768Z,13.80
2023-01-30T03:17:56.059Z,13.80
2023-01-30T03:21:44.793Z,13.80
2023-01-30T03:25:27.037Z,13.80
2023-01-30T03:29:08.723Z,13.80
2023-01-30T03:32:50.348Z,13.80
2023-01-30T03:36:32.037Z,13.80
2023-01-30T03:40:14.854Z,13.80
2023-01-30T03:43:56.495Z,13.80
2023-01-30T03:47:38.215Z,13.80
2023-01-30T03:51:19.831Z,13.80
2023-01-30T03:55:01.689Z,13.80
2023-01-30T03:58:43.348Z,13.80
2023-01-30T04:02:26.244Z,13.80
2023-01-30T04:06:07.954Z,13.80
2023-01-30T04:09:49.557Z,13.80
2023-01-30T04:13:31.174Z,13.90
2023-01-30T04:17:12.825Z,13.80
2023-01-30T04:20:54.449Z,13.90
2023-01-30T04:24:36.065Z,13.90
2023-01-30T04:28:17.690Z,13.80
2023-01-30T04:31:59.331Z,13.90
2023-01-30T04:35:40.944Z,13.90
2023-01-30T04:39:22.544Z,13.90
2023-01-30T04:43:04.143Z,13.90
2023-01-30T04:46:45.765Z,13.90
2023-01-30T04:50:27.409Z,13.80
2023-01-30T04:54:09.077Z,13.90
2023-01-30T04:57:50.691Z,13.80
2023-01-30T05:01:36.853Z,13.80
2023-01-30T05:05:18.806Z,13.80
2023-01-30T05:09:00.609Z,13.90
2023-01-30T05:12:42.282Z,13.90
2023-01-30T05:16:24.152Z,13.90
2023-01-30T05:20:07.201Z,13.80
2023-01-30T05:23:48.853Z,13.80
2023-01-30T05:27:30.694Z,13.90
2023-01-30T05:31:13.329Z,13.80
2023-01-30T05:34:54.961Z,13.90
2023-01-30T05:38:36.575Z,13.90
2023-01-30T05:42:18.263Z,13.80
2023-01-30T05:46:00.612Z,13.90
2023-01-30T05:49:42.225Z,13.90
2023-01-30T05:53:24.639Z,13.90
2023-01-30T05:57:06.341Z,13.80
2023-01-30T06:00:47.980Z,13.90
2023-01-30T06:04:29.655Z,13.80
2023-01-30T06:08:11.432Z,13.80
2023-01-30T06:11:53.370Z,13.80
2023-01-30T06:15:35.021Z,13.90
2023-01-30T06:19:16.651Z,13.90
2023-01-30T06:22:58.261Z,13.90
2023-01-30T06:26:39.885Z,13.90
2023-01-30T06:30:21.545Z,13.80
2023-01-30T06:34:03.230Z,13.80
2023-01-30T06:37:45.310Z,13.80
2023-01-30T06:41:26.925Z,13.80
2023-01-30T06:45:08.789Z,13.80
2023-01-30T06:48:50.507Z,13.80
2023-01-30T06:52:32.117Z,13.80
2023-01-30T06:56:13.717Z,13.80
2023-01-30T06:59:55.326Z,13.80
2023-01-30T07:03:37.064Z,13.80
2023-01-30T07:07:18.681Z,13.80
2023-01-30T07:11:00.346Z,13.80
2023-01-30T07:14:41.970Z,13.80
2023-01-30T07:18:23.594Z,13.80
2023-01-30T07:22:05.195Z,13.80
2023-01-30T07:25:46.807Z,13.80
2023-01-30T07:29:28.418Z,13.80
2023-01-30T07:33:10.151Z,13.80
2023-01-30T07:36:51.766Z,13.80
2023-01-30T07:40:33.489Z,13.80
2023-01-30T07:44:15.222Z,13.80
2023-01-30T07:47:56.855Z,13.80
2023-01-30T07:51:38.508Z,13.80
2023-01-30T07:55:20.475Z,13.80
2023-01-30T07:59:02.730Z,13.80
2023-01-30T08:02:44.381Z,13.80
2023-01-30T08:06:26.116Z,13.80
2023-01-30T08:10:09.774Z,13.80
2023-01-30T08:13:52.553Z,13.80
2023-01-30T08:17:34.468Z,13.80
2023-01-30T08:21:16.062Z,13.80
2023-01-30T08:24:57.735Z,13.80
2023-01-30T08:28:39.390Z,13.80
2023-01-30T08:32:21.017Z,13.80
2023-01-30T08:36:02.671Z,13.80
2023-01-30T08:39:44.302Z,13.80
2023-01-30T08:43:25.989Z,13.80
2023-01-30T08:47:07.602Z,13.80
2023-01-30T08:50:53.190Z,13.80
2023-01-30T08:54:34.861Z,13.80
2023-01-30T08:58:16.606Z,13.80
2023-01-30T09:01:58.221Z,13.80
2023-01-30T09:05:39.999Z,13.80
2023-01-30T09:09:21.617Z,13.80
2023-01-30T09:13:05.285Z,13.80
2023-01-30T09:16:48.205Z,13.80
2023-01-30T09:20:29.876Z,13.80
2023-01-30T09:24:11.539Z,13.80
2023-01-30T09:27:53.639Z,13.80
2023-01-30T09:31:35.370Z,13.80
2023-01-30T09:35:17.071Z,13.80
2023-01-30T09:38:58.707Z,13.80
2023-01-30T09:42:46.413Z,13.80
2023-01-30T09:46:43.483Z,13.80
2023-01-30T09:50:25.084Z,13.80
2023-01-30T09:54:15.131Z,13.80
2023-01-30T09:57:57.724Z,13.80
2023-01-30T10:01:54.285Z,13.80
2023-01-30T10:05:35.973Z,13.80
2023-01-30T10:09:25.665Z,13.80
2023-01-30T10:13:28.437Z,13.80
2023-01-30T10:17:22.250Z,13.80
2023-01-30T10:21:15.808Z,13.80
2023-01-30T10:25:00.263Z,13.80
2023-01-30T10:28:55.610Z,13.80
2023-01-30T10:32:46.395Z,13.90
2023-01-30T10:36:32.695Z,13.80
2023-01-30T10:40:32.827Z,13.80
2023-01-30T10:44:14.766Z,13.80
2023-01-30T10:48:02.136Z,13.90
2023-01-30T10:52:00.366Z,13.90
2023-01-30T10:55:47.763Z,13.90
2023-01-30T10:59:38.489Z,13.90
2023-01-30T11:03:23.131Z,13.90
2023-01-30T11:07:04.860Z,13.90
2023-01-30T11:10:46.511Z,13.90
2023-01-30T11:14:28.108Z,13.90
2023-01-30T11:18:49.789Z,13.90
2023-01-30T11:22:14.500Z,13.90
2023-01-30T11:26:10.361Z,14.00
2023-01-30T11:30:02.333Z,14.00
2023-01-30T11:33:44.118Z,14.00
2023-01-30T11:37:30.521Z,14.00
2023-01-30T11:41:20.627Z,14.00
2023-01-30T11:45:16.525Z,14.10
2023-01-30T11:49:45.788Z,14.00
2023-01-30T11:53:03.824Z,14.00
2023-01-30T11:56:48.253Z,14.10
2023-01-30T12:00:38.237Z,14.10
2023-01-30T12:04:20.433Z,14.00
2023-01-30T12:08:24.759Z,14.00
2023-01-30T12:12:32.865Z,14.10
2023-01-30T12:16:14.593Z,14.00
2023-01-30T12:20:22.441Z,14.10
2023-01-30T12:24:24.301Z,14.10
2023-01-30T12:28:20.262Z,14.10
2023-01-30T12:32:01.896Z,14.10
2023-01-30T12:35:44.200Z,14.10
2023-01-30T12:39:44.389Z,14.10
2023-01-30T12:43:29.084Z,14.10
2023-01-30T12:47:33.966Z,14.10
2023-01-30T12:51:18.761Z,14.10
2023-01-30T12:55:05.535Z,14.10
2023-01-30T12:58:56.318Z,14.10
2023-01-30T13:02:56.683Z,14.10
2023-01-30T13:06:41.274Z,14.10
2023-01-30T13:10:35.066Z,14.10
2023-01-30T13:14:28.925Z,14.10
2023-01-30T13:18:15.859Z,14.10
2023-01-30T13:22:06.451Z,14.10
2023-01-30T13:26:06.081Z,14.10
2023-01-30T13:29:48.350Z,14.10
2023-01-30T13:33:32.106Z,14.10
2023-01-30T13:37:15.268Z,14.10
2023-01-30T13:40:57.648Z,14.10
2023-01-30T13:44:42.243Z,14.10
2023-01-30T13:48:38.173Z,14.10
2023-01-30T13:52:38.313Z,14.10
2023-01-30T13:56:41.181Z,14.20
2023-01-30T14:00:26.638Z,14.10
2023-01-30T14:04:28.239Z,14.20
2023-01-30T14:08:17.265Z,14.20
2023-01-30T14:12:00.559Z,14.20
2023-01-30T14:15:53.078Z,14.20
2023-01-30T14:19:39.415Z,14.20
2023-01-30T14:23:32.559Z,14.20
2023-01-30T14:27:26.433Z,14.20
2023-01-30T14:31:08.200Z,14.20
2023-01-30T14:35:09.807Z,14.20
2023-01-30T14:39:17.695Z,14.30
2023-01-30T14:43:19.422Z,14.30
2023-01-30T14:47:01.077Z,14.30
2023-01-30T14:51:23.107Z,14.30
2023-01-30T14:55:05.168Z,14.30
2023-01-30T14:58:55.999Z,14.30
2023-01-30T15:02:44.068Z,14.30
2023-01-30T15:06:27.407Z,14.30
2023-01-30T15:10:23.714Z,14.30
2023-01-30T15:14:24.146Z,14.30
2023-01-30T15:18:12.241Z,14.30
2023-01-30T15:21:53.826Z,14.30
2023-01-30T15:25:38.474Z,14.30
2023-01-30T15:29:24.141Z,14.30
2023-01-30T15:33:29.308Z,14.30
2023-01-30T15:37:28.211Z,14.30
2023-01-30T15:41:10.495Z,14.30
2023-01-30T15:45:02.412Z,14.30
2023-01-30T15:48:46.747Z,14.30
2023-01-30T15:52:39.925Z,14.30
2023-01-30T15:56:24.464Z,14.30
2023-01-30T16:00:07.559Z,14.30
2023-01-30T16:03:53.378Z,14.30
2023-01-30T16:07:35.025Z,14.30
2023-01-30T16:11:31.313Z,14.30
2023-01-30T16:15:19.576Z,14.30
2023-01-30T16:19:06.797Z,14.40
2023-01-30T16:22:48.607Z,14.30
2023-01-30T16:26:31.878Z,14.30
2023-01-30T16:30:13.654Z,14.30
2023-01-30T16:33:55.269Z,14.30
2023-01-30T16:37:36.871Z,14.30
2023-01-30T16:41:39.486Z,14.30
2023-01-30T16:45:43.105Z,14.40
2023-01-30T16:49:38.388Z,14.30
2023-01-30T16:53:22.276Z,14.30
2023-01-30T16:57:04.367Z,14.30
2023-01-30T17:00:49.568Z,14.30
2023-01-30T17:04:32.240Z,14.30
2023-01-30T17:08:32.669Z,14.30
2023-01-30T17:12:26.516Z,14.30
2023-01-30T17:16:41.423Z,14.30
2023-01-30T17:20:23.362Z,14.40
2023-01-30T17:24:05.685Z,14.30
2023-01-30T17:27:47.868Z,14.30
2023-01-30T17:31:29.586Z,14.30
2023-01-30T17:35:11.598Z,14.30
2023-01-30T17:38:53.473Z,14.30
2023-01-30T17:42:35.086Z,14.30
2023-01-30T17:46:17.107Z,14.30
2023-01-30T17:49:58.790Z,14.30
2023-01-30T17:53:41.262Z,14.30
2023-01-30T17:57:25.049Z,14.30
2023-01-30T18:01:06.742Z,14.30
2023-01-30T18:04:48.353Z,14.30
2023-01-30T18:08:29.999Z,14.30
2023-01-30T18:12:11.621Z,14.30
2023-01-30T18:15:55.840Z,14.30
2023-01-30T18:19:37.466Z,14.30
2023-01-30T18:23:19.779Z,14.30
2023-01-30T18:27:01.977Z,14.30
2023-01-30T18:30:43.749Z,14.30
2023-01-30T18:34:25.489Z,14.30
2023-01-30T18:38:07.119Z,14.30
2023-01-30T18:41:48.726Z,14.20
2023-01-30T18:45:30.375Z,14.20
2023-01-30T18:49:12.009Z,14.30
2023-01-30T18:52:53.631Z,14.30
2023-01-30T18:56:36.275Z,14.20
2023-01-30T19:00:19.522Z,14.20
2023-01-30T19:04:01.918Z,14.30
2023-01-30T19:07:43.507Z,14.30
2023-01-30T19:11:44.050Z,14.30
2023-01-30T19:15:25.649Z,14.30
2023-01-30T19:19:08.424Z,14.30
2023-01-30T19:22:50.120Z,14.30
2023-01-30T19:26:32.086Z,14.30
2023-01-30T19:30:13.909Z,14.30
2023-01-30T19:33:58.079Z,14.30
2023-01-30T19:37:39.717Z,14.30
2023-01-30T19:41:31.917Z,14.30
2023-01-30T19:45:14.487Z,14.20
2023-01-30T19:48:56.326Z,14.30
2023-01-30T19:52:37.917Z,14.20
2023-01-30T19:56:21.792Z,14.20
2023-01-30T20:00:04.853Z,14.30
2023-01-30T20:03:46.810Z,14.20
2023-01-30T20:07:28.403Z,14.20
2023-01-30T20:11:14.015Z,14.20
2023-01-30T20:14:55.635Z,14.20
2023-01-30T20:18:38.391Z,14.20
2023-01-30T20:22:20.018Z,14.20
2023-01-30T20:26:05.385Z,14.20
2023-01-30T20:29:46.983Z,14.20
2023-01-30T20:33:30.883Z,14.20
2023-01-30T20:37:12.524Z,14.20
2023-01-30T20:41:00.234Z,14.20
2023-01-30T20:44:41.838Z,14.20
2023-01-30T20:48:23.499Z,14.20
2023-01-30T20:52:05.345Z,14.20
2023-01-30T20:55:48.723Z,14.20
2023-01-30T20:59:30.337Z,14.30
2023-01-30T21:03:11.949Z,14.20
2023-01-30T21:06:53.607Z,14.20
2023-01-30T21:10:35.816Z,14.20
2023-01-30T21:14:17.708Z,14.20
2023-01-30T21:17:59.346Z,14.20
2023-01-30T21:21:50.115Z,14.20
2023-01-30T21:25:31.862Z,14.20
2023-01-30T21:29:15.069Z,14.20
2023-01-30T21:32:57.609Z,14.20
2023-01-30T21:36:39.330Z,14.20
2023-01-30T21:40:39.421Z,14.20
2023-01-30T21:44:23.983Z,14.20
2023-01-30T21:48:05.649Z,14.20
2023-01-30T21:51:48.630Z,14.20
2023-01-30T21:55:30.288Z,14.20
2023-01-30T21:59:12.343Z,14.20
2023-01-30T22:02:54.016Z,14.20
2023-01-30T22:06:36.803Z,14.20
2023-01-30T22:10:18.567Z,14.20
2023-01-30T22:14:00.163Z,14.10
2023-01-30T22:17:41.767Z,14.20
2023-01-30T22:21:24.364Z,14.20
2023-01-30T22:25:06.560Z,14.20
2023-01-30T22:28:48.247Z,14.20
2023-01-30T22:32:29.865Z,14.10
2023-01-30T22:36:11.797Z,14.20
2023-01-30T22:39:53.902Z,14.20
2023-01-30T22:43:36.176Z,14.20
2023-01-30T22:47:17.906Z,14.20
2023-01-30T22:51:10.639Z,14.10
2023-01-30T22:54:52.299Z,14.10
2023-01-30T22:58:34.296Z,14.10
2023-01-30T23:02:15.970Z,14.10
2023-01-30T23:05:58.635Z,14.10
2023-01-30T23:09:40.393Z,14.20
2023-01-30T23:13:22.063Z,14.20
2023-01-30T23:17:22.869Z,14.20
2023-01-30T23:21:09.643Z,14.10
2023-01-30T23:24:51.655Z,14.20
2023-01-30T23:28:33.797Z,14.20
2023-01-30T23:32:18.991Z,14.20
2023-01-30T23:36:01.432Z,14.20
2023-01-30T23:39:43.284Z,14.20
2023-01-30T23:43:24.952Z,14.10
2023-01-30T23:47:06.596Z,14.10
2023-01-30T23:50:48.257Z,14.20
2023-01-30T23:54:29.853Z,14.20
2023-01-30T23:58:11.476Z,14.20
